createdAt,value
2019-02-09T00:01:09.655Z,99768.75
2019-02-09T00:06:02.527Z,99766.45
2019-02-09T00:10:56.418Z,99759.95
2019-02-09T00:15:49.274Z,99755.30
2019-02-09T00:20:42.105Z,99754.67
2019-02-09T00:25:35.827Z,99751.72
2019-02-09T00:30:28.756Z,99747.22
2019-02-09T00:35:22.518Z,99734.98
2019-02-09T00:40:17.588Z,99739.92
2019-02-09T00:45:11.290Z,99713.72
2019-02-09T00:50:06.686Z,99711.20
2019-02-09T00:55:00.331Z,99703.59
2019-02-09T00:59:54.397Z,99696.42
2019-02-09T01:04:52.944Z,99692.69
2019-02-09T01:09:45.800Z,99687.03
2019-02-09T01:14:38.684Z,99679.70
2019-02-09T01:19:31.556Z,99681.34
2019-02-09T01:24:24.840Z,99686.28
2019-02-09T01:29:26.395Z,99686.05
2019-02-09T01:34:19.258Z,99694.02
2019-02-09T01:39:12.138Z,99679.45
2019-02-09T01:44:05.073Z,99683.25
2019-02-09T01:48:58.008Z,99669.72
2019-02-09T01:53:50.894Z,99677.50
2019-02-09T01:58:44.927Z,99677.08
2019-02-09T02:03:37.817Z,99669.41
2019-02-09T02:08:39.497Z,99658.16
2019-02-09T02:13:34.178Z,99667.20
2019-02-09T02:18:31.636Z,99663.28
2019-02-09T02:23:24.521Z,99665.66
2019-02-09T02:28:19.840Z,99666.92
2019-02-09T02:33:15.197Z,99680.36
2019-02-09T02:38:08.459Z,99660.09
2019-02-09T02:43:01.347Z,99628.44
2019-02-09T02:47:54.194Z,99624.30
2019-02-09T02:52:47.677Z,99659.84
2019-02-09T02:57:41.465Z,99650.28
2019-02-09T03:03:10.385Z,99646.28
2019-02-09T03:08:04.603Z,99648.00
2019-02-09T03:13:08.571Z,99661.08
2019-02-09T03:18:01.429Z,99663.45
2019-02-09T03:22:54.870Z,99688.92
2019-02-09T03:28:03.581Z,99693.53
2019-02-09T03:32:58.571Z,99694.97
2019-02-09T03:37:51.578Z,99708.08
2019-02-09T03:42:46.052Z,99720.92
2019-02-09T03:47:38.938Z,99712.23
2019-02-09T03:52:31.806Z,99706.41
2019-02-09T03:57:24.694Z,99721.70
2019-02-09T04:02:17.538Z,99721.00
2019-02-09T04:07:10.392Z,99725.92
2019-02-09T04:12:03.589Z,99720.23
2019-02-09T04:16:56.464Z,99723.84
2019-02-09T04:21:49.330Z,99729.70
2019-02-09T04:26:42.210Z,99741.98
2019-02-09T04:31:35.088Z,99749.16
2019-02-09T04:36:27.958Z,99747.91
2019-02-09T04:41:20.791Z,99750.08
2019-02-09T04:46:13.672Z,99762.28
2019-02-09T04:51:06.532Z,99776.75
2019-02-09T04:55:59.392Z,99793.38
2019-02-09T05:00:52.234Z,99799.41
2019-02-09T05:05:45.101Z,99782.03
2019-02-09T05:10:37.963Z,99809.05
2019-02-09T05:15:30.818Z,99801.48
2019-02-09T05:20:24.956Z,99790.45
2019-02-09T05:25:18.827Z,99809.33
2019-02-09T05:30:24.202Z,99810.77
2019-02-09T05:35:17.285Z,99808.16
2019-02-09T05:40:12.788Z,99819.28
2019-02-09T05:45:10.277Z,99845.42
2019-02-09T05:50:04.431Z,99855.23
2019-02-09T05:54:57.291Z,99861.84
2019-02-09T05:59:50.193Z,99867.92
2019-02-09T06:04:43.049Z,99871.36
2019-02-09T06:09:35.899Z,99870.31
2019-02-09T06:14:28.774Z,99877.67
2019-02-09T06:19:21.650Z,99882.02
2019-02-09T06:24:14.519Z,99894.41
2019-02-09T06:29:07.388Z,99895.47
2019-02-09T06:34:00.262Z,99905.40
2019-02-09T06:38:53.155Z,99893.57
2019-02-09T06:43:46.042Z,99899.58
2019-02-09T06:48:38.868Z,99894.34
2019-02-09T06:53:31.736Z,99911.59
2019-02-09T06:58:24.669Z,99919.59
2019-02-09T07:03:17.587Z,99921.28
2019-02-09T07:08:10.435Z,99942.67
2019-02-09T07:13:03.421Z,99945.31
2019-02-09T07:17:56.261Z,99956.32
2019-02-09T07:22:49.129Z,99966.38
2019-02-09T07:27:42.103Z,99978.05
2019-02-09T07:32:35.006Z,99977.33
2019-02-09T07:37:27.904Z,99977.38
2019-02-09T07:42:20.806Z,100002.91
2019-02-09T07:47:13.767Z,100001.43
2019-02-09T07:52:07.005Z,100012.91
2019-02-09T07:56:59.939Z,100027.84
2019-02-09T08:01:54.036Z,100036.20
2019-02-09T08:06:46.897Z,100060.81
2019-02-09T08:11:39.762Z,100070.40
2019-02-09T08:16:32.620Z,100071.41
2019-02-09T08:21:25.488Z,100073.27
2019-02-09T08:26:18.458Z,100063.77
2019-02-09T08:31:11.332Z,100081.17
2019-02-09T08:36:04.204Z,100074.87
2019-02-09T08:40:57.289Z,100070.08
2019-02-09T08:45:50.129Z,100077.16
2019-02-09T08:50:51.680Z,100071.95
2019-02-09T08:55:44.488Z,100077.55
2019-02-09T09:00:38.199Z,100072.08
2019-02-09T09:05:31.085Z,100079.78
2019-02-09T09:10:25.584Z,100089.49
2019-02-09T09:15:34.715Z,100102.80
2019-02-09T09:20:33.820Z,100104.69
2019-02-09T09:25:26.739Z,100096.52
2019-02-09T09:30:22.668Z,100104.18
2019-02-09T09:35:15.767Z,100116.73
2019-02-09T09:40:23.761Z,100118.55
2019-02-09T09:45:20.875Z,100122.83
2019-02-09T09:50:15.751Z,100127.86
2019-02-09T09:55:09.338Z,100136.69
2019-02-09T10:00:02.206Z,100140.44
2019-02-09T10:04:55.084Z,100145.46
2019-02-09T10:09:47.953Z,100149.23
2019-02-09T10:14:40.840Z,100151.51
2019-02-09T10:19:33.696Z,100155.53
2019-02-09T10:24:26.570Z,100154.66
2019-02-09T10:29:19.425Z,100178.91
2019-02-09T10:34:12.335Z,100171.88
2019-02-09T10:39:08.293Z,100164.86
2019-02-09T10:44:01.184Z,100148.85
2019-02-09T10:48:54.050Z,100147.94
2019-02-09T10:53:46.911Z,100170.34
2019-02-09T10:58:39.784Z,100154.02
2019-02-09T11:03:32.659Z,100148.02
2019-02-09T11:08:25.526Z,100145.36
2019-02-09T11:13:18.484Z,100141.30
2019-02-09T11:18:11.572Z,100136.95
2019-02-09T11:23:05.089Z,100136.92
2019-02-09T11:27:57.948Z,100143.98
2019-02-09T11:32:50.809Z,100152.13
2019-02-09T11:37:43.780Z,100148.77
2019-02-09T11:42:36.739Z,100149.40
2019-02-09T11:47:29.723Z,100157.77
2019-02-09T11:52:22.570Z,100162.27
2019-02-09T11:57:15.462Z,100167.33
2019-02-09T12:02:08.344Z,100161.64
2019-02-09T12:07:04.246Z,100169.30
2019-02-09T12:11:57.180Z,100161.23
2019-02-09T12:16:50.053Z,100157.33
2019-02-09T12:21:42.876Z,100141.83
2019-02-09T12:26:35.734Z,100142.30
2019-02-09T12:31:28.642Z,100140.32
2019-02-09T12:36:21.475Z,100135.44
2019-02-09T12:41:14.649Z,100163.55
2019-02-09T12:46:07.512Z,100144.88
2019-02-09T12:51:00.463Z,100134.10
2019-02-09T12:55:53.369Z,100143.71
2019-02-09T13:00:47.425Z,100138.54
2019-02-09T13:05:40.414Z,100123.44
2019-02-09T13:10:33.396Z,100125.69
2019-02-09T13:15:27.988Z,100123.11
2019-02-09T13:20:45.919Z,100128.11
2019-02-09T13:25:38.971Z,100135.30
2019-02-09T13:30:32.303Z,100137.90
2019-02-09T13:35:25.166Z,100144.73
2019-02-09T13:40:19.179Z,100156.11
2019-02-09T13:45:25.243Z,100165.97
2019-02-09T13:50:18.187Z,100167.41
2019-02-09T13:55:11.508Z,100191.95
2019-02-09T14:00:09.283Z,100182.22
2019-02-09T14:05:02.176Z,118045.80
2019-02-09T14:09:55.052Z,118045.80
2019-02-09T14:14:48.016Z,118045.80
2019-02-09T14:19:41.011Z,118045.80
2019-02-09T14:25:09.599Z,118045.80
2019-02-09T14:30:02.858Z,118045.80
2019-02-09T14:34:55.862Z,118045.80
2019-02-09T14:39:51.280Z,118045.80
2019-02-09T14:44:44.168Z,118045.80
2019-02-09T14:49:37.033Z,118045.80
2019-02-09T14:54:30.071Z,118045.80
2019-02-09T14:59:50.773Z,118045.80
2019-02-09T15:04:43.728Z,118045.80
2019-02-09T15:10:56.941Z,118045.80
2019-02-09T15:17:09.449Z,118045.80
2019-02-09T15:22:06.339Z,118045.80
2019-02-09T15:26:59.630Z,118045.80
2019-02-09T15:32:48.913Z,118045.80
2019-02-09T15:37:42.599Z,118045.80
2019-02-09T15:43:29.614Z,118045.80
2019-02-09T15:48:32.400Z,118045.80
2019-02-09T15:53:26.530Z,118045.80
2019-02-09T15:58:21.565Z,118045.80
2019-02-09T16:03:14.511Z,118045.80
2019-02-09T16:08:09.561Z,118045.80
2019-02-09T16:13:02.839Z,118045.80
2019-02-09T16:17:58.654Z,118045.80
2019-02-09T16:22:52.005Z,118045.80
2019-02-09T16:28:26.910Z,118045.80
2019-02-09T16:33:19.754Z,118045.80
2019-02-09T16:38:13.718Z,118045.80
2019-02-09T16:43:07.331Z,118045.80
2019-02-09T16:48:00.677Z,118045.80
2019-02-09T16:52:53.539Z,118045.80
2019-02-09T16:57:47.682Z,118045.80
2019-02-09T17:02:40.559Z,118045.80
2019-02-09T17:07:33.451Z,118045.80
2019-02-09T17:12:26.332Z,118045.80
2019-02-09T17:17:19.194Z,118045.80
2019-02-09T17:22:15.900Z,118045.80
2019-02-09T17:27:16.682Z,118045.80
2019-02-09T17:37:29.828Z,118045.80
2019-02-09T17:42:25.910Z,118045.80
2019-02-09T17:47:19.363Z,118045.80
2019-02-09T17:52:18.610Z,118045.80
2019-02-09T17:57:11.575Z,118045.80
2019-02-09T18:02:04.768Z,118045.80
2019-02-09T18:06:57.638Z,118045.80
2019-02-09T18:11:50.529Z,118045.80
2019-02-09T18:16:43.399Z,118045.80
2019-02-09T18:21:36.253Z,118045.80
2019-02-09T18:26:29.175Z,118045.80
2019-02-09T18:31:22.118Z,118045.80
2019-02-09T18:36:16.885Z,118045.80
2019-02-09T18:41:09.733Z,118045.80
2019-02-09T18:46:02.728Z,118045.80
2019-02-09T18:50:55.583Z,118045.80
2019-02-09T18:55:48.471Z,118045.80
2019-02-09T19:00:42.520Z,118045.80
2019-02-09T19:05:35.693Z,118045.80
2019-02-09T19:10:28.617Z,118045.80
2019-02-09T19:15:23.116Z,118045.80
2019-02-09T19:20:23.152Z,118045.80
2019-02-09T19:25:16.704Z,118045.80
2019-02-09T19:30:17.813Z,118045.80
2019-02-09T19:35:11.977Z,118045.80
2019-02-09T19:40:07.314Z,118045.80
2019-02-09T19:45:00.233Z,118045.80
2019-02-09T19:49:53.206Z,118045.80
2019-02-09T19:54:46.085Z,118045.80
2019-02-09T19:59:39.020Z,118045.80
2019-02-09T20:04:32.050Z,118045.80
2019-02-09T20:09:24.913Z,118045.80
2019-02-09T20:14:17.787Z,118045.80
2019-02-09T20:19:10.675Z,118045.80
2019-02-09T20:24:03.619Z,118045.80
2019-02-09T20:28:56.493Z,118045.80
2019-02-09T20:33:49.356Z,118045.80
2019-02-09T20:38:42.229Z,118045.80
2019-02-09T20:43:35.095Z,118045.80
2019-02-09T20:48:27.943Z,118045.80
2019-02-09T20:53:20.802Z,118045.80
2019-02-09T20:58:14.446Z,118045.80
2019-02-09T21:03:07.342Z,118045.80
2019-02-09T21:08:00.259Z,118045.80
2019-02-09T21:12:54.446Z,118045.80
2019-02-09T21:17:47.570Z,118045.80
2019-02-09T21:22:40.467Z,118045.80
2019-02-09T21:27:33.978Z,118045.80
2019-02-09T21:32:27.047Z,118045.80
2019-02-09T21:37:19.886Z,118045.80
2019-02-09T21:42:12.769Z,118045.80
2019-02-09T21:47:05.701Z,118045.80
2019-02-09T21:51:58.605Z,118045.80
2019-02-09T21:56:51.479Z,118045.80
2019-02-09T22:01:44.352Z,118045.80
2019-02-09T22:06:37.222Z,118045.80
2019-02-09T22:11:30.248Z,118045.80
2019-02-09T22:16:23.378Z,118045.80
2019-02-09T22:21:16.298Z,118045.80
2019-02-09T22:26:13.210Z,118045.80
2019-02-09T22:31:05.808Z,118045.80
2019-02-09T22:36:01.396Z,118045.80
2019-02-09T22:40:54.721Z,118045.80
2019-02-09T22:45:52.744Z,118045.80
2019-02-09T22:50:46.572Z,118045.80
2019-02-09T22:55:43.832Z,118045.80
2019-02-09T23:01:28.303Z,118045.80
2019-02-09T23:07:07.616Z,118045.80
2019-02-09T23:12:00.781Z,118045.80
2019-02-09T23:16:53.635Z,118045.80
2019-02-09T23:21:48.336Z,118045.80
2019-02-09T23:26:42.949Z,118045.80
2019-02-09T23:31:37.298Z,118045.80
2019-02-09T23:36:32.755Z,118045.80
2019-02-09T23:41:25.771Z,118045.80
2019-02-09T23:46:18.844Z,118045.80
2019-02-09T23:51:12.032Z,118045.80
2019-02-09T23:56:05.294Z,118045.80
